sensor_id;sensor_type;location;lat;lon;timestamp;P1;durP1;ratioP1;P2;durP2;ratioP2
31347;SDS011;21711;49.708;18.568;2023-07-29T00:00:17;5.25;;;3.78;;
31347;SDS011;21711;49.708;18.568;2023-07-29T00:02:45;4.82;;;3.72;;
31347;SDS011;21711;49.708;18.568;2023-07-29T00:05:13;8.15;;;3.88;;
31347;SDS011;21711;49.708;18.568;2023-07-29T00:07:40;8.18;;;3.90;;
31347;SDS011;21711;49.708;18.568;2023-07-29T00:10:07;6.00;;;4.13;;
31347;SDS011;21711;49.708;18.568;2023-07-29T00:12:35;6.72;;;4.07;;
31347;SDS011;21711;49.708;18.568;2023-07-29T00:15:02;5.55;;;3.60;;
31347;SDS011;21711;49.708;18.568;2023-07-29T00:17:30;5.47;;;3.47;;
31347;SDS011;21711;49.708;18.568;2023-07-29T00:19:57;7.28;;;3.83;;
31347;SDS011;21711;49.708;18.568;2023-07-29T00:22:25;8.63;;;3.58;;
31347;SDS011;21711;49.708;18.568;2023-07-29T00:24:52;5.40;;;4.05;;
31347;SDS011;21711;49.708;18.568;2023-07-29T00:27:24;9.18;;;3.83;;
31347;SDS011;21711;49.708;18.568;2023-07-29T00:29:51;6.28;;;4.10;;
31347;SDS011;21711;49.708;18.568;2023-07-29T00:32:19;7.80;;;3.95;;
31347;SDS011;21711;49.708;18.568;2023-07-29T00:34:46;5.55;;;4.05;;
31347;SDS011;21711;49.708;18.568;2023-07-29T00:37:13;6.40;;;3.60;;
31347;SDS011;21711;49.708;18.568;2023-07-29T00:39:41;7.30;;;3.85;;
31347;SDS011;21711;49.708;18.568;2023-07-29T00:42:08;6.90;;;4.80;;
31347;SDS011;21711;49.708;18.568;2023-07-29T00:44:36;5.70;;;3.80;;
31347;SDS011;21711;49.708;18.568;2023-07-29T00:47:03;5.28;;;3.95;;
31347;SDS011;21711;49.708;18.568;2023-07-29T00:49:32;8.15;;;3.65;;
31347;SDS011;21711;49.708;18.568;2023-07-29T00:52:01;6.38;;;3.40;;
31347;SDS011;21711;49.708;18.568;2023-07-29T00:54:29;5.88;;;3.72;;
31347;SDS011;21711;49.708;18.568;2023-07-29T00:56:56;3.85;;;3.05;;
31347;SDS011;21711;49.708;18.568;2023-07-29T00:59:25;8.30;;;3.70;;
31347;SDS011;21711;49.708;18.568;2023-07-29T01:01:54;4.55;;;3.72;;
31347;SDS011;21711;49.708;18.568;2023-07-29T01:04:22;11.18;;;4.18;;
31347;SDS011;21711;49.708;18.568;2023-07-29T01:06:54;5.88;;;3.30;;
31347;SDS011;21711;49.708;18.568;2023-07-29T01:13:05;6.25;;;4.43;;
31347;SDS011;21711;49.708;18.568;2023-07-29T01:18:31;5.63;;;3.97;;
31347;SDS011;21711;49.708;18.568;2023-07-29T01:21:07;4.30;;;3.70;;
31347;SDS011;21711;49.708;18.568;2023-07-29T01:23:36;5.57;;;4.13;;
31347;SDS011;21711;49.708;18.568;2023-07-29T01:26:04;4.82;;;3.88;;
31347;SDS011;21711;49.708;18.568;2023-07-29T01:28:32;5.28;;;4.07;;
31347;SDS011;21711;49.708;18.568;2023-07-29T01:31:07;5.03;;;4.05;;
31347;SDS011;21711;49.708;18.568;2023-07-29T01:33:45;4.72;;;3.42;;
31347;SDS011;21711;49.708;18.568;2023-07-29T01:36:26;5.80;;;3.85;;
31347;SDS011;21711;49.708;18.568;2023-07-29T01:38:56;8.43;;;3.75;;
31347;SDS011;21711;49.708;18.568;2023-07-29T01:41:25;6.43;;;4.15;;
31347;SDS011;21711;49.708;18.568;2023-07-29T01:43:55;5.07;;;3.88;;
31347;SDS011;21711;49.708;18.568;2023-07-29T01:46:23;5.85;;;3.90;;
31347;SDS011;21711;49.708;18.568;2023-07-29T01:48:52;5.50;;;3.13;;
31347;SDS011;21711;49.708;18.568;2023-07-29T01:51:19;6.15;;;3.88;;
31347;SDS011;21711;49.708;18.568;2023-07-29T01:53:47;5.78;;;4.05;;
31347;SDS011;21711;49.708;18.568;2023-07-29T01:56:15;7.85;;;4.38;;
31347;SDS011;21711;49.708;18.568;2023-07-29T01:58:50;7.38;;;4.07;;
31347;SDS011;21711;49.708;18.568;2023-07-29T02:01:18;5.03;;;3.72;;
31347;SDS011;21711;49.708;18.568;2023-07-29T02:03:45;8.68;;;4.00;;
31347;SDS011;21711;49.708;18.568;2023-07-29T02:06:12;6.38;;;3.55;;
31347;SDS011;21711;49.708;18.568;2023-07-29T02:08:40;8.23;;;3.78;;
31347;SDS011;21711;49.708;18.568;2023-07-29T02:11:07;6.45;;;4.40;;
31347;SDS011;21711;49.708;18.568;2023-07-29T02:13:34;5.88;;;4.13;;
31347;SDS011;21711;49.708;18.568;2023-07-29T02:16:02;5.22;;;3.92;;
31347;SDS011;21711;49.708;18.568;2023-07-29T02:18:30;14.85;;;5.72;;
31347;SDS011;21711;49.708;18.568;2023-07-29T02:20:57;4.63;;;3.63;;
31347;SDS011;21711;49.708;18.568;2023-07-29T02:23:24;8.77;;;3.83;;
31347;SDS011;21711;49.708;18.568;2023-07-29T02:25:52;4.72;;;3.42;;
31347;SDS011;21711;49.708;18.568;2023-07-29T02:28:20;6.35;;;3.47;;
31347;SDS011;21711;49.708;18.568;2023-07-29T02:30:47;7.13;;;3.40;;
31347;SDS011;21711;49.708;18.568;2023-07-29T02:33:44;9.00;;;3.83;;
31347;SDS011;21711;49.708;18.568;2023-07-29T02:36:12;5.63;;;3.05;;
31347;SDS011;21711;49.708;18.568;2023-07-29T02:38:41;4.68;;;3.22;;
31347;SDS011;21711;49.708;18.568;2023-07-29T02:41:09;4.30;;;3.22;;
31347;SDS011;21711;49.708;18.568;2023-07-29T02:43:39;8.25;;;3.78;;
31347;SDS011;21711;49.708;18.568;2023-07-29T02:46:08;6.72;;;3.75;;
31347;SDS011;21711;49.708;18.568;2023-07-29T02:48:36;6.55;;;3.67;;
31347;SDS011;21711;49.708;18.568;2023-07-29T02:51:03;5.22;;;3.42;;
31347;SDS011;21711;49.708;18.568;2023-07-29T02:53:30;5.35;;;3.78;;
31347;SDS011;21711;49.708;18.568;2023-07-29T02:55:58;5.13;;;3.50;;
31347;SDS011;21711;49.708;18.568;2023-07-29T02:58:25;6.45;;;3.47;;
31347;SDS011;21711;49.708;18.568;2023-07-29T03:00:53;5.10;;;3.53;;
31347;SDS011;21711;49.708;18.568;2023-07-29T03:03:20;4.35;;;3.22;;
31347;SDS011;21711;49.708;18.568;2023-07-29T03:05:48;7.85;;;4.05;;
31347;SDS011;21711;49.708;18.568;2023-07-29T03:08:15;5.25;;;3.40;;
31347;SDS011;21711;49.708;18.568;2023-07-29T03:10:42;6.72;;;3.70;;
31347;SDS011;21711;49.708;18.568;2023-07-29T03:13:09;6.38;;;3.80;;
31347;SDS011;21711;49.708;18.568;2023-07-29T03:15:37;9.75;;;4.10;;
31347;SDS011;21711;49.708;18.568;2023-07-29T03:18:05;6.95;;;4.22;;
31347;SDS011;21711;49.708;18.568;2023-07-29T03:20:32;7.22;;;4.00;;
31347;SDS011;21711;49.708;18.568;2023-07-29T03:22:59;4.63;;;3.53;;
31347;SDS011;21711;49.708;18.568;2023-07-29T03:25:27;11.05;;;3.75;;
31347;SDS011;21711;49.708;18.568;2023-07-29T03:27:55;5.68;;;3.55;;
31347;SDS011;21711;49.708;18.568;2023-07-29T03:30:22;5.32;;;3.60;;
31347;SDS011;21711;49.708;18.568;2023-07-29T03:32:51;5.22;;;3.45;;
31347;SDS011;21711;49.708;18.568;2023-07-29T03:35:19;5.43;;;3.67;;
31347;SDS011;21711;49.708;18.568;2023-07-29T03:37:46;6.63;;;3.95;;
31347;SDS011;21711;49.708;18.568;2023-07-29T03:40:14;6.43;;;3.65;;
31347;SDS011;21711;49.708;18.568;2023-07-29T03:42:41;7.05;;;3.70;;
31347;SDS011;21711;49.708;18.568;2023-07-29T03:45:09;9.65;;;4.00;;
31347;SDS011;21711;49.708;18.568;2023-07-29T03:47:36;7.45;;;4.43;;
31347;SDS011;21711;49.708;18.568;2023-07-29T03:50:04;5.18;;;3.85;;
31347;SDS011;21711;49.708;18.568;2023-07-29T03:52:32;9.10;;;5.30;;
31347;SDS011;21711;49.708;18.568;2023-07-29T03:54:59;5.55;;;3.97;;
31347;SDS011;21711;49.708;18.568;2023-07-29T03:57:26;5.53;;;3.88;;
31347;SDS011;21711;49.708;18.568;2023-07-29T03:59:55;4.55;;;3.63;;
31347;SDS011;21711;49.708;18.568;2023-07-29T04:02:22;7.78;;;4.13;;
31347;SDS011;21711;49.708;18.568;2023-07-29T04:04:50;5.75;;;3.92;;
31347;SDS011;21711;49.708;18.568;2023-07-29T04:07:18;5.97;;;2.95;;
31347;SDS011;21711;49.708;18.568;2023-07-29T04:09:45;4.47;;;2.72;;
31347;SDS011;21711;49.708;18.568;2023-07-29T04:12:13;5.15;;;2.92;;
31347;SDS011;21711;49.708;18.568;2023-07-29T04:14:41;5.38;;;2.80;;
31347;SDS011;21711;49.708;18.568;2023-07-29T04:17:08;2.80;;;2.13;;
31347;SDS011;21711;49.708;18.568;2023-07-29T04:19:35;3.97;;;2.70;;
31347;SDS011;21711;49.708;18.568;2023-07-29T04:22:03;3.78;;;1.90;;
31347;SDS011;21711;49.708;18.568;2023-07-29T04:24:31;3.53;;;2.10;;
31347;SDS011;21711;49.708;18.568;2023-07-29T04:26:58;4.88;;;2.30;;
31347;SDS011;21711;49.708;18.568;2023-07-29T04:29:25;5.75;;;2.03;;
31347;SDS011;21711;49.708;18.568;2023-07-29T04:31:53;2.50;;;1.77;;
31347;SDS011;21711;49.708;18.568;2023-07-29T04:34:20;2.55;;;2.10;;
31347;SDS011;21711;49.708;18.568;2023-07-29T04:36:48;5.68;;;2.30;;
31347;SDS011;21711;49.708;18.568;2023-07-29T04:39:15;3.83;;;1.67;;
31347;SDS011;21711;49.708;18.568;2023-07-29T04:41:43;5.55;;;2.83;;
31347;SDS011;21711;49.708;18.568;2023-07-29T04:44:10;3.65;;;2.67;;
31347;SDS011;21711;49.708;18.568;2023-07-29T04:46:38;6.75;;;2.00;;
31347;SDS011;21711;49.708;18.568;2023-07-29T04:49:05;3.95;;;2.50;;
31347;SDS011;21711;49.708;18.568;2023-07-29T04:51:32;4.68;;;2.10;;
31347;SDS011;21711;49.708;18.568;2023-07-29T04:54:00;4.13;;;2.22;;
31347;SDS011;21711;49.708;18.568;2023-07-29T04:56:27;4.72;;;2.05;;
31347;SDS011;21711;49.708;18.568;2023-07-29T04:58:55;2.63;;;2.00;;
31347;SDS011;21711;49.708;18.568;2023-07-29T05:01:22;4.43;;;2.75;;
31347;SDS011;21711;49.708;18.568;2023-07-29T05:03:51;4.43;;;2.05;;
31347;SDS011;21711;49.708;18.568;2023-07-29T05:06:18;3.20;;;2.00;;
31347;SDS011;21711;49.708;18.568;2023-07-29T05:08:46;2.67;;;1.98;;
31347;SDS011;21711;49.708;18.568;2023-07-29T05:11:13;3.40;;;1.70;;
31347;SDS011;21711;49.708;18.568;2023-07-29T05:13:41;3.70;;;1.83;;
31347;SDS011;21711;49.708;18.568;2023-07-29T05:16:11;2.97;;;1.95;;
31347;SDS011;21711;49.708;18.568;2023-07-29T05:18:39;4.57;;;1.80;;
31347;SDS011;21711;49.708;18.568;2023-07-29T05:21:06;3.92;;;2.10;;
31347;SDS011;21711;49.708;18.568;2023-07-29T05:23:35;4.63;;;2.20;;
31347;SDS011;21711;49.708;18.568;2023-07-29T05:26:03;1.98;;;1.60;;
31347;SDS011;21711;49.708;18.568;2023-07-29T05:28:30;2.67;;;2.10;;
31347;SDS011;21711;49.708;18.568;2023-07-29T05:31:00;2.03;;;1.77;;
31347;SDS011;21711;49.708;18.568;2023-07-29T05:33:29;2.47;;;1.95;;
31347;SDS011;21711;49.708;18.568;2023-07-29T05:35:56;3.80;;;2.22;;
31347;SDS011;21711;49.708;18.568;2023-07-29T05:38:24;6.15;;;1.65;;
31347;SDS011;21711;49.708;18.568;2023-07-29T05:40:52;5.60;;;2.00;;
31347;SDS011;21711;49.708;18.568;2023-07-29T05:43:19;3.40;;;2.10;;
31347;SDS011;21711;49.708;18.568;2023-07-29T05:45:47;3.08;;;1.90;;
31347;SDS011;21711;49.708;18.568;2023-07-29T05:48:14;4.20;;;2.00;;
31347;SDS011;21711;49.708;18.568;2023-07-29T05:50:42;2.28;;;1.67;;
31347;SDS011;21711;49.708;18.568;2023-07-29T05:53:09;2.22;;;2.03;;
31347;SDS011;21711;49.708;18.568;2023-07-29T05:55:36;3.15;;;1.73;;
31347;SDS011;21711;49.708;18.568;2023-07-29T05:58:04;1.92;;;1.73;;
31347;SDS011;21711;49.708;18.568;2023-07-29T06:00:31;1.77;;;1.40;;
31347;SDS011;21711;49.708;18.568;2023-07-29T06:02:59;4.70;;;1.90;;
31347;SDS011;21711;49.708;18.568;2023-07-29T06:05:27;5.90;;;1.80;;
31347;SDS011;21711;49.708;18.568;2023-07-29T06:07:55;3.15;;;1.58;;
31347;SDS011;21711;49.708;18.568;2023-07-29T06:10:22;3.40;;;2.45;;
31347;SDS011;21711;49.708;18.568;2023-07-29T06:12:50;2.33;;;1.42;;
31347;SDS011;21711;49.708;18.568;2023-07-29T06:15:17;2.78;;;1.70;;
31347;SDS011;21711;49.708;18.568;2023-07-29T06:17:48;1.90;;;1.70;;
31347;SDS011;21711;49.708;18.568;2023-07-29T06:20:16;2.35;;;1.70;;
31347;SDS011;21711;49.708;18.568;2023-07-29T06:22:43;2.38;;;1.35;;
31347;SDS011;21711;49.708;18.568;2023-07-29T06:25:11;1.50;;;1.40;;
31347;SDS011;21711;49.708;18.568;2023-07-29T06:27:39;2.20;;;1.50;;
31347;SDS011;21711;49.708;18.568;2023-07-29T06:30:06;2.33;;;1.40;;
31347;SDS011;21711;49.708;18.568;2023-07-29T06:32:34;2.75;;;1.35;;
31347;SDS011;21711;49.708;18.568;2023-07-29T06:35:02;2.80;;;1.75;;
31347;SDS011;21711;49.708;18.568;2023-07-29T06:37:29;1.73;;;1.20;;
31347;SDS011;21711;49.708;18.568;2023-07-29T06:39:57;2.55;;;1.33;;
31347;SDS011;21711;49.708;18.568;2023-07-29T06:42:24;6.50;;;1.50;;
31347;SDS011;21711;49.708;18.568;2023-07-29T06:44:51;2.92;;;1.92;;
31347;SDS011;21711;49.708;18.568;2023-07-29T06:47:18;1.63;;;1.38;;
31347;SDS011;21711;49.708;18.568;2023-07-29T06:49:46;2.88;;;1.42;;
31347;SDS011;21711;49.708;18.568;2023-07-29T06:52:13;1.45;;;1.35;;
31347;SDS011;21711;49.708;18.568;2023-07-29T06:54:41;2.47;;;1.38;;
31347;SDS011;21711;49.708;18.568;2023-07-29T06:57:08;2.00;;;1.35;;
31347;SDS011;21711;49.708;18.568;2023-07-29T06:59:36;3.95;;;1.60;;
31347;SDS011;21711;49.708;18.568;2023-07-29T07:02:03;2.55;;;1.77;;
31347;SDS011;21711;49.708;18.568;2023-07-29T07:04:31;1.92;;;1.10;;
31347;SDS011;21711;49.708;18.568;2023-07-29T07:06:59;1.45;;;1.20;;
31347;SDS011;21711;49.708;18.568;2023-07-29T07:09:27;3.42;;;1.30;;
31347;SDS011;21711;49.708;18.568;2023-07-29T07:11:54;2.55;;;1.42;;
31347;SDS011;21711;49.708;18.568;2023-07-29T07:14:21;2.70;;;1.20;;
31347;SDS011;21711;49.708;18.568;2023-07-29T07:16:49;1.33;;;1.23;;
31347;SDS011;21711;49.708;18.568;2023-07-29T07:19:16;1.70;;;1.30;;
31347;SDS011;21711;49.708;18.568;2023-07-29T07:21:44;8.13;;;1.58;;
31347;SDS011;21711;49.708;18.568;2023-07-29T07:24:11;4.93;;;1.63;;
31347;SDS011;21711;49.708;18.568;2023-07-29T07:26:39;1.85;;;1.60;;
31347;SDS011;21711;49.708;18.568;2023-07-29T07:29:06;6.05;;;1.80;;
31347;SDS011;21711;49.708;18.568;2023-07-29T07:31:33;7.88;;;1.88;;
31347;SDS011;21711;49.708;18.568;2023-07-29T07:34:01;2.35;;;1.60;;
31347;SDS011;21711;49.708;18.568;2023-07-29T07:36:29;2.03;;;1.60;;
31347;SDS011;21711;49.708;18.568;2023-07-29T07:38:57;1.90;;;1.42;;
31347;SDS011;21711;49.708;18.568;2023-07-29T07:41:24;2.50;;;1.58;;
31347;SDS011;21711;49.708;18.568;2023-07-29T07:43:52;8.15;;;1.65;;
31347;SDS011;21711;49.708;18.568;2023-07-29T07:46:19;1.88;;;1.40;;
31347;SDS011;21711;49.708;18.568;2023-07-29T07:48:47;3.15;;;1.58;;
31347;SDS011;21711;49.708;18.568;2023-07-29T07:51:14;2.28;;;1.38;;
31347;SDS011;21711;49.708;18.568;2023-07-29T07:53:41;2.30;;;1.55;;
31347;SDS011;21711;49.708;18.568;2023-07-29T07:56:09;3.13;;;1.73;;
31347;SDS011;21711;49.708;18.568;2023-07-29T07:58:36;4.78;;;1.40;;
31347;SDS011;21711;49.708;18.568;2023-07-29T08:01:05;1.95;;;1.30;;
31347;SDS011;21711;49.708;18.568;2023-07-29T08:03:34;1.48;;;1.30;;
31347;SDS011;21711;49.708;18.568;2023-07-29T08:06:02;4.07;;;1.70;;
31347;SDS011;21711;49.708;18.568;2023-07-29T08:08:33;1.75;;;1.50;;
31347;SDS011;21711;49.708;18.568;2023-07-29T08:11:00;4.45;;;1.60;;
31347;SDS011;21711;49.708;18.568;2023-07-29T08:13:28;2.70;;;1.52;;
31347;SDS011;21711;49.708;18.568;2023-07-29T08:15:55;5.18;;;1.77;;
31347;SDS011;21711;49.708;18.568;2023-07-29T08:18:23;2.03;;;1.58;;
31347;SDS011;21711;49.708;18.568;2023-07-29T08:20:57;2.92;;;1.70;;
31347;SDS011;21711;49.708;18.568;2023-07-29T08:23:30;3.28;;;1.60;;
31347;SDS011;21711;49.708;18.568;2023-07-29T08:26:01;2.92;;;1.60;;
31347;SDS011;21711;49.708;18.568;2023-07-29T08:28:34;2.50;;;1.70;;
31347;SDS011;21711;49.708;18.568;2023-07-29T08:31:04;3.35;;;1.50;;
31347;SDS011;21711;49.708;18.568;2023-07-29T08:33:32;2.47;;;1.75;;
31347;SDS011;21711;49.708;18.568;2023-07-29T08:36:01;4.38;;;1.63;;
31347;SDS011;21711;49.708;18.568;2023-07-29T08:38:29;1.75;;;1.38;;
31347;SDS011;21711;49.708;18.568;2023-07-29T08:41:10;2.63;;;1.90;;
31347;SDS011;21711;49.708;18.568;2023-07-29T08:43:54;4.32;;;1.65;;
31347;SDS011;21711;49.708;18.568;2023-07-29T08:46:39;4.13;;;1.70;;
31347;SDS011;21711;49.708;18.568;2023-07-29T08:49:07;4.18;;;1.65;;
31347;SDS011;21711;49.708;18.568;2023-07-29T08:51:34;5.32;;;1.63;;
31347;SDS011;21711;49.708;18.568;2023-07-29T08:54:03;2.10;;;1.60;;
31347;SDS011;21711;49.708;18.568;2023-07-29T08:56:30;2.10;;;1.60;;
31347;SDS011;21711;49.708;18.568;2023-07-29T08:58:58;3.85;;;1.67;;
31347;SDS011;21711;49.708;18.568;2023-07-29T09:01:28;4.05;;;2.03;;
31347;SDS011;21711;49.708;18.568;2023-07-29T09:03:57;2.50;;;1.65;;
31347;SDS011;21711;49.708;18.568;2023-07-29T09:06:25;3.45;;;2.13;;
31347;SDS011;21711;49.708;18.568;2023-07-29T09:08:54;2.95;;;1.83;;
31347;SDS011;21711;49.708;18.568;2023-07-29T09:11:24;2.13;;;1.50;;
31347;SDS011;21711;49.708;18.568;2023-07-29T09:13:52;3.42;;;1.60;;
31347;SDS011;21711;49.708;18.568;2023-07-29T09:16:20;2.00;;;1.50;;
31347;SDS011;21711;49.708;18.568;2023-07-29T09:18:48;2.67;;;1.45;;
31347;SDS011;21711;49.708;18.568;2023-07-29T09:21:17;2.30;;;1.83;;
31347;SDS011;21711;49.708;18.568;2023-07-29T09:23:50;2.85;;;2.00;;
31347;SDS011;21711;49.708;18.568;2023-07-29T09:26:27;2.85;;;1.75;;
31347;SDS011;21711;49.708;18.568;2023-07-29T09:28:55;2.03;;;1.58;;
31347;SDS011;21711;49.708;18.568;2023-07-29T09:31:25;1.77;;;1.67;;
31347;SDS011;21711;49.708;18.568;2023-07-29T09:34:03;2.30;;;1.75;;
31347;SDS011;21711;49.708;18.568;2023-07-29T09:36:32;4.57;;;1.83;;
31347;SDS011;21711;49.708;18.568;2023-07-29T09:39:01;2.92;;;1.75;;
31347;SDS011;21711;49.708;18.568;2023-07-29T09:41:29;5.13;;;1.75;;
31347;SDS011;21711;49.708;18.568;2023-07-29T09:44:01;3.97;;;2.00;;
31347;SDS011;21711;49.708;18.568;2023-07-29T09:46:37;2.58;;;2.35;;
31347;SDS011;21711;49.708;18.568;2023-07-29T09:49:06;4.38;;;2.08;;
31347;SDS011;21711;49.708;18.568;2023-07-29T09:51:38;2.22;;;1.92;;
31347;SDS011;21711;49.708;18.568;2023-07-29T09:54:06;6.03;;;2.30;;
31347;SDS011;21711;49.708;18.568;2023-07-29T09:56:39;2.30;;;2.08;;
31347;SDS011;21711;49.708;18.568;2023-07-29T09:59:09;2.33;;;1.90;;
31347;SDS011;21711;49.708;18.568;2023-07-29T10:01:38;4.88;;;1.80;;
31347;SDS011;21711;49.708;18.568;2023-07-29T10:04:06;2.58;;;1.80;;
31347;SDS011;21711;49.708;18.568;2023-07-29T10:06:38;3.15;;;2.30;;
31347;SDS011;21711;49.708;18.568;2023-07-29T10:09:07;4.70;;;2.10;;
31347;SDS011;21711;49.708;18.568;2023-07-29T10:11:37;1.98;;;1.77;;
31347;SDS011;21711;49.708;18.568;2023-07-29T10:14:06;3.63;;;2.28;;
31347;SDS011;21711;49.708;18.568;2023-07-29T10:16:37;3.85;;;2.20;;
31347;SDS011;21711;49.708;18.568;2023-07-29T10:19:08;2.97;;;1.42;;
31347;SDS011;21711;49.708;18.568;2023-07-29T10:21:37;2.47;;;2.00;;
31347;SDS011;21711;49.708;18.568;2023-07-29T10:24:09;2.63;;;1.85;;
31347;SDS011;21711;49.708;18.568;2023-07-29T10:26:42;2.25;;;1.83;;
31347;SDS011;21711;49.708;18.568;2023-07-29T10:29:18;4.35;;;1.98;;
31347;SDS011;21711;49.708;18.568;2023-07-29T10:31:50;2.60;;;1.80;;
31347;SDS011;21711;49.708;18.568;2023-07-29T10:34:21;3.90;;;1.90;;
31347;SDS011;21711;49.708;18.568;2023-07-29T10:36:49;1.92;;;1.60;;
31347;SDS011;21711;49.708;18.568;2023-07-29T10:39:18;2.05;;;1.80;;
31347;SDS011;21711;49.708;18.568;2023-07-29T10:41:55;1.88;;;1.73;;
31347;SDS011;21711;49.708;18.568;2023-07-29T10:47:11;2.92;;;2.00;;
31347;SDS011;21711;49.708;18.568;2023-07-29T10:49:44;3.28;;;1.67;;
31347;SDS011;21711;49.708;18.568;2023-07-29T10:55:03;3.22;;;1.70;;
31347;SDS011;21711;49.708;18.568;2023-07-29T10:57:48;2.80;;;1.58;;
31347;SDS011;21711;49.708;18.568;2023-07-29T11:00:18;2.33;;;1.75;;
31347;SDS011;21711;49.708;18.568;2023-07-29T11:02:57;6.10;;;1.90;;
31347;SDS011;21711;49.708;18.568;2023-07-29T11:05:41;3.13;;;1.77;;
31347;SDS011;21711;49.708;18.568;2023-07-29T11:13:38;2.05;;;1.33;;
31347;SDS011;21711;49.708;18.568;2023-07-29T11:16:06;2.75;;;1.50;;
31347;SDS011;21711;49.708;18.568;2023-07-29T11:18:36;2.20;;;1.40;;
31347;SDS011;21711;49.708;18.568;2023-07-29T11:21:04;2.03;;;1.35;;
31347;SDS011;21711;49.708;18.568;2023-07-29T11:23:33;2.42;;;1.30;;
31347;SDS011;21711;49.708;18.568;2023-07-29T11:26:03;1.15;;;1.05;;
31347;SDS011;21711;49.708;18.568;2023-07-29T11:28:37;2.50;;;1.42;;
31347;SDS011;21711;49.708;18.568;2023-07-29T11:31:07;1.20;;;1.10;;
31347;SDS011;21711;49.708;18.568;2023-07-29T11:33:34;2.78;;;1.60;;
31347;SDS011;21711;49.708;18.568;2023-07-29T11:36:05;2.72;;;1.27;;
31347;SDS011;21711;49.708;18.568;2023-07-29T11:38:32;3.03;;;1.42;;
31347;SDS011;21711;49.708;18.568;2023-07-29T11:41:03;2.47;;;1.38;;
31347;SDS011;21711;49.708;18.568;2023-07-29T11:43:34;11.45;;;1.70;;
31347;SDS011;21711;49.708;18.568;2023-07-29T11:46:03;6.57;;;1.80;;
31347;SDS011;21711;49.708;18.568;2023-07-29T11:48:31;3.20;;;1.48;;
31347;SDS011;21711;49.708;18.568;2023-07-29T11:53:28;1.67;;;1.10;;
31347;SDS011;21711;49.708;18.568;2023-07-29T11:55:58;3.33;;;0.90;;
31347;SDS011;21711;49.708;18.568;2023-07-29T11:58:26;1.88;;;1.20;;
31347;SDS011;21711;49.708;18.568;2023-07-29T12:00:53;2.05;;;1.25;;
31347;SDS011;21711;49.708;18.568;2023-07-29T12:03:21;2.45;;;1.10;;
31347;SDS011;21711;49.708;18.568;2023-07-29T12:05:49;1.65;;;1.15;;
31347;SDS011;21711;49.708;18.568;2023-07-29T12:08:17;2.75;;;1.40;;
31347;SDS011;21711;49.708;18.568;2023-07-29T12:10:44;1.55;;;1.45;;
31347;SDS011;21711;49.708;18.568;2023-07-29T12:13:12;2.85;;;1.00;;
31347;SDS011;21711;49.708;18.568;2023-07-29T12:15:43;1.65;;;1.23;;
31347;SDS011;21711;49.708;18.568;2023-07-29T12:18:10;1.35;;;1.05;;
31347;SDS011;21711;49.708;18.568;2023-07-29T12:20:39;3.83;;;1.10;;
31347;SDS011;21711;49.708;18.568;2023-07-29T12:23:06;1.40;;;1.30;;
31347;SDS011;21711;49.708;18.568;2023-07-29T12:25:34;1.52;;;1.17;;
31347;SDS011;21711;49.708;18.568;2023-07-29T12:28:05;1.38;;;1.10;;
31347;SDS011;21711;49.708;18.568;2023-07-29T12:30:34;2.38;;;0.90;;
31347;SDS011;21711;49.708;18.568;2023-07-29T12:33:07;1.90;;;1.20;;
31347;SDS011;21711;49.708;18.568;2023-07-29T12:35:35;1.45;;;0.90;;
31347;SDS011;21711;49.708;18.568;2023-07-29T12:38:04;1.10;;;0.70;;
31347;SDS011;21711;49.708;18.568;2023-07-29T12:40:31;1.58;;;0.90;;
31347;SDS011;21711;49.708;18.568;2023-07-29T12:42:59;1.77;;;1.00;;
31347;SDS011;21711;49.708;18.568;2023-07-29T12:45:26;0.80;;;0.57;;
31347;SDS011;21711;49.708;18.568;2023-07-29T12:47:55;1.25;;;0.85;;
31347;SDS011;21711;49.708;18.568;2023-07-29T12:50:23;1.77;;;1.00;;
31347;SDS011;21711;49.708;18.568;2023-07-29T12:52:50;2.92;;;1.02;;
31347;SDS011;21711;49.708;18.568;2023-07-29T12:55:17;1.10;;;0.80;;
31347;SDS011;21711;49.708;18.568;2023-07-29T12:57:49;1.75;;;1.27;;
31347;SDS011;21711;49.708;18.568;2023-07-29T13:00:17;1.45;;;1.00;;
31347;SDS011;21711;49.708;18.568;2023-07-29T13:02:45;1.25;;;0.90;;
31347;SDS011;21711;49.708;18.568;2023-07-29T13:05:12;1.63;;;1.30;;
31347;SDS011;21711;49.708;18.568;2023-07-29T13:07:40;3.17;;;1.00;;
31347;SDS011;21711;49.708;18.568;2023-07-29T13:10:09;1.53;;;1.00;;
31347;SDS011;21711;49.708;18.568;2023-07-29T13:12:38;2.15;;;1.00;;
31347;SDS011;21711;49.708;18.568;2023-07-29T13:15:06;1.90;;;1.23;;
31347;SDS011;21711;49.708;18.568;2023-07-29T13:17:34;1.48;;;1.27;;
31347;SDS011;21711;49.708;18.568;2023-07-29T13:20:01;1.17;;;1.08;;
31347;SDS011;21711;49.708;18.568;2023-07-29T13:22:30;2.10;;;1.15;;
31347;SDS011;21711;49.708;18.568;2023-07-29T13:24:57;3.05;;;1.45;;
31347;SDS011;21711;49.708;18.568;2023-07-29T13:27:24;1.08;;;0.88;;
31347;SDS011;21711;49.708;18.568;2023-07-29T13:29:53;3.33;;;1.00;;
31347;SDS011;21711;49.708;18.568;2023-07-29T13:32:20;5.03;;;1.17;;
31347;SDS011;21711;49.708;18.568;2023-07-29T13:34:48;1.42;;;1.10;;
31347;SDS011;21711;49.708;18.568;2023-07-29T13:37:15;1.08;;;0.90;;
31347;SDS011;21711;49.708;18.568;2023-07-29T13:39:42;1.83;;;1.40;;
31347;SDS011;21711;49.708;18.568;2023-07-29T13:42:10;2.65;;;1.95;;
31347;SDS011;21711;49.708;18.568;2023-07-29T13:44:37;1.30;;;1.05;;
31347;SDS011;21711;49.708;18.568;2023-07-29T13:47:05;2.55;;;1.42;;
31347;SDS011;21711;49.708;18.568;2023-07-29T13:49:33;2.15;;;1.40;;
31347;SDS011;21711;49.708;18.568;2023-07-29T13:52:00;1.30;;;1.00;;
31347;SDS011;21711;49.708;18.568;2023-07-29T13:54:27;2.78;;;1.10;;
31347;SDS011;21711;49.708;18.568;2023-07-29T13:56:55;1.52;;;1.00;;
31347;SDS011;21711;49.708;18.568;2023-07-29T13:59:22;3.03;;;1.20;;
31347;SDS011;21711;49.708;18.568;2023-07-29T14:01:50;1.63;;;1.30;;
31347;SDS011;21711;49.708;18.568;2023-07-29T14:04:17;1.35;;;1.25;;
31347;SDS011;21711;49.708;18.568;2023-07-29T14:06:45;1.42;;;0.98;;
31347;SDS011;21711;49.708;18.568;2023-07-29T14:09:17;1.77;;;1.48;;
31347;SDS011;21711;49.708;18.568;2023-07-29T14:11:44;1.58;;;1.30;;
31347;SDS011;21711;49.708;18.568;2023-07-29T14:14:12;2.78;;;1.00;;
31347;SDS011;21711;49.708;18.568;2023-07-29T14:16:39;1.40;;;1.27;;
31347;SDS011;21711;49.708;18.568;2023-07-29T14:19:06;1.15;;;0.95;;
31347;SDS011;21711;49.708;18.568;2023-07-29T14:21:34;1.60;;;1.00;;
31347;SDS011;21711;49.708;18.568;2023-07-29T14:24:01;1.42;;;1.08;;
31347;SDS011;21711;49.708;18.568;2023-07-29T14:26:29;1.38;;;1.20;;
31347;SDS011;21711;49.708;18.568;2023-07-29T14:28:56;0.98;;;0.85;;
31347;SDS011;21711;49.708;18.568;2023-07-29T14:31:23;2.67;;;0.90;;
31347;SDS011;21711;49.708;18.568;2023-07-29T14:33:51;0.80;;;0.70;;
31347;SDS011;21711;49.708;18.568;2023-07-29T14:36:18;1.15;;;0.90;;
31347;SDS011;21711;49.708;18.568;2023-07-29T14:38:45;2.50;;;0.80;;
31347;SDS011;21711;49.708;18.568;2023-07-29T14:41:13;1.17;;;0.70;;
31347;SDS011;21711;49.708;18.568;2023-07-29T14:43:40;1.50;;;1.00;;
31347;SDS011;21711;49.708;18.568;2023-07-29T14:46:07;2.70;;;1.00;;
31347;SDS011;21711;49.708;18.568;2023-07-29T14:48:36;1.42;;;0.90;;
31347;SDS011;21711;49.708;18.568;2023-07-29T14:51:03;1.50;;;0.75;;
31347;SDS011;21711;49.708;18.568;2023-07-29T14:53:31;0.82;;;0.70;;
31347;SDS011;21711;49.708;18.568;2023-07-29T14:55:58;0.95;;;0.80;;
31347;SDS011;21711;49.708;18.568;2023-07-29T14:58:25;1.48;;;1.38;;
31347;SDS011;21711;49.708;18.568;2023-07-29T15:00:52;1.65;;;0.85;;